^^
Datos históricos de la estación: Murcia-Puente Tocinos
Diario Informe para Julio 19, 2019 Unidades:  Métrico    Ingés   Ambas
Diario Semanal Mensual Anual
  Máxima: Mínima: Promedio:
Temperatura: 32.1 °C 22.3 °C 26.9 °C
Punto de rocio: 20.9 °C 12.9 °C 18.2 °C
Humedad: 81% 31.5% 62%
Velocidad viento: 19km/h 0km/h 8.9km/h
Racha viento: 37km/h - -
Viento- - ENE
Presión: 1014.8 hPa 1011.2 hPa -
Precipitación: 0.0 mm    
 
 
Tabla de datos para Julio 19, 2019
Hora Temperatura Punto de rocio Presión Viento Velocidad viento Racha viento Humedad Intensidad lluvia(por hora) Nubes
00:04 24.8 °C 19.5 °C 1013.6 hPa NE 10.3 km/h 14.8 km/h 72.5% 0.0 mm
00:09 24.8 °C 19.6 °C 1013.6 hPa NE 10 km/h 14.5 km/h 73% 0.0 mm
00:14 24.7 °C 19.6 °C 1013.6 hPa NE 8.7 km/h 18.5 km/h 73.2% 0.0 mm
00:19 24.6 °C 19.7 °C 1013.6 hPa NE 8.9 km/h 19.3 km/h 74% 0.0 mm
00:24 24.6 °C 19.7 °C 1013.5 hPa NE 10 km/h 14.5 km/h 74% 0.0 mm
00:29 24.6 °C 19.7 °C 1013.5 hPa NE 9.5 km/h 13 km/h 74% 0.0 mm
00:34 24.5 °C 19.6 °C 1013.7 hPa NE 8.4 km/h 12.9 km/h 74% 0.0 mm
00:39 24.4 °C 19.6 °C 1013.7 hPa NE 8.2 km/h 11.3 km/h 74.4% 0.0 mm
00:44 24.4 °C 19.7 °C 1013.7 hPa NE 7.6 km/h 13 km/h 75% 0.0 mm
00:49 24.3 °C 19.6 °C 1013.7 hPa NE 7.8 km/h 13 km/h 75% 0.0 mm
00:54 24.3 °C 19.6 °C 1013.7 hPa NNE 8.4 km/h 11.9 km/h 75.5% 0.0 mm
00:59 24.2 °C 19.7 °C 1013.7 hPa NE 7.8 km/h 12.2 km/h 76% 0.0 mm
01:04 24.2 °C 19.8 °C 1013.8 hPa NE 6.5 km/h 13 km/h 76.6% 0.0 mm
01:09 24.1 °C 19.8 °C 1013.8 hPa NE 7.2 km/h 13 km/h 77% 0.0 mm
01:14 24.1 °C 19.8 °C 1013.8 hPa NE 9.5 km/h 14.8 km/h 77% 0.0 mm
01:19 24.1 °C 19.8 °C 1013.8 hPa NE 9.2 km/h 16.7 km/h 77% 0.0 mm
01:24 24.1 °C 19.8 °C 1013.8 hPa NE 8.4 km/h 16.1 km/h 77% 0.0 mm
01:29 24 °C 19.8 °C 1013.8 hPa NE 8.4 km/h 13 km/h 77% 0.0 mm
01:34 23.9 °C 19.8 °C 1013.9 hPa NE 8.4 km/h 12.9 km/h 77.8% 0.0 mm
01:39 23.9 °C 19.8 °C 1013.9 hPa NE 8.4 km/h 13 km/h 78% 0.0 mm
01:44 23.9 °C 19.8 °C 1013.9 hPa NE 8.4 km/h 12.9 km/h 78% 0.0 mm
01:49 23.8 °C 19.8 °C 1013.9 hPa NE 8.2 km/h 11.9 km/h 78% 0.0 mm
01:54 23.8 °C 19.7 °C 1013.9 hPa NE 7.6 km/h 14.8 km/h 78% 0.0 mm
01:59 23.8 °C 19.8 °C 1013.9 hPa NE 7.8 km/h 14.5 km/h 78.6% 0.0 mm
02:04 23.7 °C 19.8 °C 1013.9 hPa NE 8.4 km/h 11.9 km/h 79% 0.0 mm
02:09 23.7 °C 19.8 °C 1013.8 hPa NE 7.9 km/h 11.3 km/h 79% 0.0 mm
02:14 23.6 °C 19.7 °C 1013.8 hPa NNE 6.5 km/h 11.1 km/h 79% 0.0 mm
02:19 23.6 °C 19.7 °C 1013.9 hPa NE 6.3 km/h 13 km/h 79% 0.0 mm
02:24 23.6 °C 19.7 °C 1013.9 hPa NNE 5.8 km/h 12.9 km/h 79% 0.0 mm
02:29 23.6 °C 19.7 °C 1013.9 hPa NNE 5.5 km/h 9.7 km/h 79% 0.0 mm
02:34 23.5 °C 19.8 °C 1013.9 hPa NNE 4.7 km/h 10.3 km/h 79.8% 0.0 mm
02:39 23.5 °C 19.9 °C 1013.8 hPa NNE 4.7 km/h 11.3 km/h 80% 0.0 mm
02:44 23.5 °C 19.8 °C 1013.8 hPa NNE 5 km/h 11.3 km/h 80% 0.0 mm
02:49 23.4 °C 19.8 °C 1013.8 hPa NNE 4.9 km/h 8 km/h 80% 0.0 mm
02:54 23.4 °C 19.8 °C 1013.8 hPa NE 4.7 km/h 9.5 km/h 80% 0.0 mm
02:59 23.4 °C 19.8 °C 1013.8 hPa NE 4.8 km/h 9.7 km/h 80% 0.0 mm
03:04 23.4 °C 19.8 °C 1013.8 hPa NE 5 km/h 9.7 km/h 80.1% 0.0 mm
03:09 23.3 °C 19.8 °C 1013.8 hPa NE 5 km/h 9.7 km/h 80.6% 0.0 mm
03:14 23.3 °C 19.9 °C 1013.8 hPa NE 5 km/h 8 km/h 81% 0.0 mm
03:19 23.4 °C 19.8 °C 1013.8 hPa ENE 5 km/h 8.4 km/h 80.4% 0.0 mm
03:24 23.4 °C 19.8 °C 1013.6 hPa NE 5 km/h 8 km/h 80% 0.0 mm
03:29 23.3 °C 19.7 °C 1013.6 hPa ENE 4.5 km/h 8 km/h 80% 0.0 mm
03:34 23.3 °C 19.8 °C 1013.6 hPa ENE 3.2 km/h 8 km/h 80.7% 0.0 mm
03:39 23.2 °C 19.8 °C 1013.5 hPa ENE 3.2 km/h 8.7 km/h 81% 0.0 mm
03:44 23.2 °C 19.8 °C 1013.5 hPa NE 3.2 km/h 9.7 km/h 81% 0.0 mm
03:49 23.2 °C 19.7 °C 1013.5 hPa NE 3.7 km/h 9.7 km/h 81% 0.0 mm
03:54 23.1 °C 19.5 °C 1013.4 hPa NE 5 km/h 8 km/h 80.2% 0.0 mm
03:59 23.1 °C 19.4 °C 1013.4 hPa NE 4.4 km/h 6.4 km/h 80% 0.0 mm
04:04 23.1 °C 19.4 °C 1013.4 hPa NE 2.9 km/h 3.2 km/h 80% 0.0 mm
04:09 23.1 °C 19.4 °C 1013.2 hPa Este 2.7 km/h 7.4 km/h 79.7% 0.0 mm
04:14 23.1 °C 19.3 °C 1013.2 hPa ESE 2.2 km/h 8 km/h 79% 0.0 mm
04:19 23.1 °C 19.3 °C 1013.2 hPa ESE 2.4 km/h 8 km/h 79% 0.0 mm
04:24 23.1 °C 19.3 °C 1013.2 hPa ESE 2.9 km/h 4.8 km/h 79% 0.0 mm
04:29 23.1 °C 19.3 °C 1013.2 hPa ESE 2.2 km/h 7.4 km/h 79% 0.0 mm
04:34 23.1 °C 19.2 °C 1013.2 hPa Calm   8 km/h 78.7% 0.0 mm
04:39 23.1 °C 19 °C 1013.1 hPa ESE 0.9 km/h 7.4 km/h 78% 0.0 mm
04:44 23.1 °C 19.1 °C 1013.1 hPa ESE 3.2 km/h 8 km/h 78% 0.0 mm
04:49 23 °C 18.8 °C 1013.1 hPa ESE 3.2 km/h 8 km/h 77% 0.0 mm
04:54 22.9 °C 18.7 °C 1013.1 hPa ESE 3.2 km/h 8 km/h 77% 0.0 mm
04:59 22.9 °C 18.7 °C 1013.1 hPa ESE 3.1 km/h 6.4 km/h 77% 0.0 mm
05:04 22.8 °C 18.8 °C 1013.1 hPa ESE 2.9 km/h 6.4 km/h 78% 0.0 mm
05:09 22.8 °C 18.8 °C 1013.0 hPa ESE 2.9 km/h 6.4 km/h 78% 0.0 mm
05:14 22.8 °C 18.8 °C 1013.0 hPa ESE 2.9 km/h 4.8 km/h 78% 0.0 mm
05:19 22.8 °C 18.8 °C 1013.0 hPa ESE 2.1 km/h 3.2 km/h 78% 0.0 mm
05:24 22.8 °C 18.8 °C 1013.0 hPa Calm     78% 0.0 mm
05:29 22.8 °C 18.8 °C 1013.0 hPa Calm     78% 0.0 mm
05:34 22.9 °C 18.8 °C 1013.1 hPa Calm   7.4 km/h 78% 0.0 mm
05:39 22.9 °C 18.8 °C 1013.1 hPa ESE 0.7 km/h 8 km/h 78% 0.0 mm
05:44 22.9 °C 18.8 °C 1013.1 hPa ESE 2.9 km/h 4.8 km/h 78% 0.0 mm
05:49 22.9 °C 19 °C 1013.1 hPa ESE 2.2 km/h 3.2 km/h 79% 0.0 mm
05:54 22.9 °C 19 °C 1013.1 hPa Calm     78.8% 0.0 mm
05:59 22.9 °C 18.9 °C 1013.1 hPa Calm     78.5% 0.0 mm
06:04 22.8 °C 18.8 °C 1013.2 hPa Calm     78% 0.0 mm
06:09 22.8 °C 18.7 °C 1013.2 hPa Calm   3.9 km/h 78% 0.0 mm
06:14 22.7 °C 18.7 °C 1013.2 hPa Calm   4.7 km/h 78% 0.0 mm
06:19 22.6 °C 18.6 °C 1013.3 hPa ESE 0.7 km/h 5.6 km/h 78% 0.0 mm
06:24 22.6 °C 18.5 °C 1013.3 hPa ESE 2.9 km/h 5.8 km/h 78% 0.0 mm
06:29 22.4 °C 18.4 °C 1013.3 hPa ESE 3 km/h 6.4 km/h 78.1% 0.0 mm
06:34 22.4 °C 18.4 °C 1013.3 hPa ESE 3.2 km/h 5.6 km/h 78% 0.0 mm
06:39 22.4 °C 18.4 °C 1013.3 hPa ESE 3 km/h 4.8 km/h 78% 0.0 mm
06:44 22.3 °C 18.3 °C 1013.3 hPa ESE 2.2 km/h 4.7 km/h 78% 0.0 mm
06:49 22.3 °C 18.3 °C 1013.6 hPa ESE 1.7 km/h 5.6 km/h 78% 0.0 mm
06:54 22.3 °C 18.3 °C 1013.6 hPa Calm   4.8 km/h 78% 0.0 mm
06:59 22.3 °C 18.3 °C 1013.6 hPa Calm   3.2 km/h 78% 0.0 mm
07:04 22.3 °C 18.2 °C 1013.6 hPa Calm     77.7% 0.0 mm
07:09 22.4 °C 18.2 °C 1013.5 hPa Calm     77.3% 0.0 mm
07:14 22.4 °C 18.2 °C 1013.5 hPa Calm     77% 0.0 mm
07:19 22.4 °C 18.2 °C 1013.7 hPa Calm     77% 0.0 mm
07:24 22.4 °C 18.2 °C 1013.7 hPa Calm     77.1% 0.0 mm
07:29 22.5 °C 18.4 °C 1013.7 hPa Calm     77.7% 0.0 mm
07:34 22.6 °C 18.4 °C 1013.8 hPa Calm     77% 0.0 mm
07:39 22.8 °C 18.4 °C 1013.8 hPa Calm     76.7% 0.0 mm
07:44 22.8 °C 18.3 °C 1013.8 hPa Calm   5.6 km/h 75.4% 0.0 mm
07:49 22.9 °C 18.3 °C 1014.0 hPa ESE 0.6 km/h 4.8 km/h 75% 0.0 mm
07:54 23 °C 18.2 °C 1014.0 hPa SE 2.2 km/h 7.6 km/h 74.2% 0.0 mm
07:59 23 °C 18.3 °C 1014.0 hPa SE 2.5 km/h 8 km/h 74.5% 0.0 mm
08:04 23 °C 18.3 °C 1014.0 hPa SSE 3.2 km/h 8 km/h 75% 0.0 mm
08:09 23.1 °C 18.4 °C 1014.0 hPa Sur 3.7 km/h 8.4 km/h 75% 0.0 mm
08:14 23.1 °C 18.4 °C 1014.0 hPa SSE 5 km/h 8 km/h 75% 0.0 mm
08:19 23.2 °C 18.5 °C 1014.1 hPa SSE 4.5 km/h 8 km/h 75% 0.0 mm
08:24 23.3 °C 18.5 °C 1014.1 hPa SSE 3.2 km/h 9.5 km/h 74% 0.0 mm
08:29 23.5 °C 18.6 °C 1014.1 hPa SSE 3.4 km/h 9.7 km/h 74% 0.0 mm
08:34 23.7 °C 18.7 °C 1014.1 hPa SSE 3.9 km/h 6.4 km/h 73.7% 0.0 mm
08:39 24.1 °C 18.9 °C 1014.1 hPa SSE 2.9 km/h 3.2 km/h 72.8% 0.0 mm
08:44 24.3 °C 18.8 °C 1014.1 hPa Calm     71.3% 0.0 mm
08:49 24.4 °C 18.8 °C 1014.4 hPa Calm   7.4 km/h 71% 0.0 mm
08:54 24.4 °C 18.8 °C 1014.4 hPa Calm   8 km/h 71% 0.0 mm
08:59 24.3 °C 18.7 °C 1014.4 hPa SSE 0.9 km/h 7.4 km/h 71% 0.0 mm
09:04 24.3 °C 18.9 °C 1014.5 hPa Sur 3.2 km/h 8 km/h 71.8% 0.0 mm
09:09 24.2 °C 18.9 °C 1014.5 hPa SSE 3.4 km/h 8 km/h 72% 0.0 mm
09:14 24.2 °C 18.8 °C 1014.5 hPa SSE 3.9 km/h 9.3 km/h 72.1% 0.0 mm
09:19 24.1 °C 18.9 °C 1014.6 hPa SE 4.1 km/h 9.7 km/h 72.8% 0.0 mm
09:24 24.1 °C 19 °C 1014.6 hPa ESE 4.7 km/h 8 km/h 73% 0.0 mm
09:29 24.3 °C 19 °C 1014.6 hPa Sur 4.4 km/h 8 km/h 72.7% 0.0 mm
09:34 24.4 °C 19 °C 1014.8 hPa Sur 3.9 km/h 8 km/h 72% 0.0 mm
09:39 24.7 °C 19.3 °C 1014.8 hPa SSE 3.9 km/h 8 km/h 72% 0.0 mm
09:44 25 °C 19.4 °C 1014.8 hPa ESE 3.9 km/h 8 km/h 71.2% 0.0 mm
09:49 25.5 °C 19.6 °C 1014.8 hPa Este 3.6 km/h 8.7 km/h 70% 0.0 mm
09:54 25.7 °C 19.9 °C 1014.7 hPa NNO 2.9 km/h 9.7 km/h 70.5% 0.0 mm
09:59 25.7 °C 20.1 °C 1014.7 hPa NNE 3.4 km/h 9.7 km/h 71.1% 0.0 mm
10:04 25.9 °C 20.3 °C 1014.8 hPa NE 4.7 km/h 11.1 km/h 71.2% 0.0 mm
10:09 26.2 °C 20.4 °C 1014.8 hPa NNE 4.3 km/h 11.3 km/h 70.7% 0.0 mm
10:14 26.3 °C 20.4 °C 1014.8 hPa North 3.2 km/h 13 km/h 70% 0.0 mm
10:19 26.2 °C 20.5 °C 1014.8 hPa NNE 4.1 km/h 13 km/h 70.9% 0.0 mm
10:24 26.2 °C 20.4 °C 1014.7 hPa NNO 6.5 km/h 11.3 km/h 70.6% 0.0 mm
10:29 26.3 °C 20.4 °C 1014.7 hPa NNE 6.1 km/h 16.4 km/h 70.3% 0.0 mm
10:34 26.3 °C 20.4 °C 1014.7 hPa ENE 5 km/h 16.7 km/h 70.2% 0.0 mm
10:39 26.3 °C 20.5 °C 1014.6 hPa NE 5.4 km/h 14 km/h 70.4% 0.0 mm
10:44 26.3 °C 20 °C 1014.6 hPa NNE 6.5 km/h 14.8 km/h 68.1% 0.0 mm
10:49 26.6 °C 20.1 °C 1014.6 hPa North 6.5 km/h 14.5 km/h 67.8% 0.0 mm
10:54 26.8 °C 19.6 °C 1014.5 hPa NNE 6.5 km/h 13 km/h 64.6% 0.0 mm
10:59 26.9 °C 19.4 °C 1014.5 hPa NNO 6.5 km/h 13 km/h 63.4% 0.0 mm
11:04 27 °C 19.5 °C 1014.5 hPa NNE 6.5 km/h 10 km/h 63.3% 0.0 mm
11:09 27.3 °C 19.6 °C 1014.5 hPa NNE 6.3 km/h 16.7 km/h 63% 0.0 mm
11:14 27.3 °C 19.6 °C 1014.5 hPa NNE 5.8 km/h 19 km/h 62.9% 0.0 mm
11:19 27.4 °C 19.5 °C 1014.5 hPa NE 6.5 km/h 19.3 km/h 62.2% 0.0 mm
11:24 27.4 °C 19.6 °C 1014.5 hPa NNO 8.7 km/h 16.1 km/h 62.4% 0.0 mm
11:29 27.5 °C 19.2 °C 1014.5 hPa North 8.4 km/h 14.5 km/h 60.4% 0.0 mm
11:34 27.7 °C 19.1 °C 1014.5 hPa North 7.6 km/h 13 km/h 59.4% 0.0 mm
11:39 27.8 °C 19.4 °C 1014.4 hPa NE 7.4 km/h 18.5 km/h 60% 0.0 mm
11:44 28 °C 19.4 °C 1014.4 hPa NE 6.9 km/h 19.3 km/h 59.8% 0.0 mm
11:49 28.2 °C 19.1 °C 1014.4 hPa NNE 7.3 km/h 15.6 km/h 58% 0.0 mm
11:54 28.3 °C 18.8 °C 1014.3 hPa NE 8.4 km/h 19 km/h 56.4% 0.0 mm
11:59 28.4 °C 18.6 °C 1014.3 hPa NE 8.7 km/h 19.3 km/h 55.4% 0.0 mm
12:04 28.6 °C 18.4 °C 1014.3 hPa NNE 9.5 km/h 20.9 km/h 54% 0.0 mm
12:09 28.7 °C 18.4 °C 1014.2 hPa NNE 9.6 km/h 20.9 km/h 53.7% 0.0 mm
12:14 29 °C 17.8 °C 1014.2 hPa ENE 10 km/h 25.9 km/h 50.8% 0.0 mm
12:19 29.2 °C 17.7 °C 1014.2 hPa ENE 10.1 km/h 26.2 km/h 49.8% 0.0 mm
12:24 29.5 °C 17.3 °C 1013.9 hPa NE 10.3 km/h 25.7 km/h 48% 0.0 mm
12:29 29.4 °C 17.3 °C 1013.9 hPa NE 11.5 km/h 22.5 km/h 48.1% 0.0 mm
12:34 29.6 °C 17.2 °C 1013.9 hPa NE 14.8 km/h 24.1 km/h 47.3% 0.0 mm
12:39 29.7 °C 17.6 °C 1013.8 hPa NE 13.6 km/h 24.1 km/h 48% 0.0 mm
12:44 30 °C 17.6 °C 1013.8 hPa NE 10.3 km/h 24.5 km/h 47.6% 0.0 mm
12:49 29.9 °C 17.1 °C 1013.8 hPa NE 10.8 km/h 28.6 km/h 46.2% 0.0 mm
12:54 30.2 °C 16.9 °C 1013.5 hPa NE 12.2 km/h 29.6 km/h 45.1% 0.0 mm
12:59 30.3 °C 16.9 °C 1013.5 hPa NE 12.8 km/h 27.4 km/h 44.7% 0.0 mm
13:04 30.4 °C 17.1 °C 1013.5 hPa NE 14 km/h 24.1 km/h 45% 0.0 mm
13:09 30.5 °C 17.2 °C 1013.5 hPa NE 14 km/h 24.5 km/h 45.1% 0.0 mm
13:14 30.7 °C 16.6 °C 1013.5 hPa NE 14 km/h 24.5 km/h 42.7% 0.0 mm
13:19 30.8 °C 15.9 °C 1013.6 hPa NE 13.8 km/h 26.2 km/h 40.6% 0.0 mm
13:24 31.1 °C 14.8 °C 1013.6 hPa NE 13 km/h 29.6 km/h 37.2% 0.0 mm
13:29 31.5 °C 14.4 °C 1013.6 hPa ENE 13.2 km/h 29 km/h 35.4% 0.0 mm
13:34 31.8 °C 14.3 °C 1013.6 hPa ENE 13.7 km/h 24.1 km/h 34.6% 0.0 mm
13:39 32.1 °C 14 °C 1013.5 hPa ENE 13.2 km/h 26.2 km/h 33.4% 0.0 mm
13:44 32.1 °C 13.5 °C 1013.5 hPa ENE 11.9 km/h 27.8 km/h 32.4% 0.0 mm
13:49 32.1 °C 13.7 °C 1013.5 hPa NE 12.2 km/h 27.4 km/h 32.8% 0.0 mm
13:54 32.1 °C 13.6 °C 1013.5 hPa NE 13 km/h 25.9 km/h 32.6% 0.0 mm
13:59 32 °C 13 °C 1013.5 hPa ENE 13.5 km/h 27.4 km/h 31.5% 0.0 mm
14:04 31.8 °C 12.9 °C 1013.5 hPa NE 14.8 km/h 27.8 km/h 31.6% 0.0 mm
14:09 31.9 °C 13.3 °C 1013.3 hPa NE 15.1 km/h 31.7 km/h 32.4% 0.0 mm
14:14 32 °C 13.1 °C 1013.3 hPa Este 16.1 km/h 32.2 km/h 31.8% 0.0 mm
14:19 32.1 °C 13.3 °C 1013.3 hPa ENE 15.8 km/h 31.7 km/h 32.1% 0.0 mm
14:24 32 °C 13.6 °C 1013.3 hPa ENE 14.8 km/h 32.2 km/h 32.8% 0.0 mm
14:29 32.1 °C 13.3 °C 1013.3 hPa ENE 14.6 km/h 29.6 km/h 32% 0.0 mm
14:34 31.9 °C 13.6 °C 1013.3 hPa ENE 14 km/h 29.6 km/h 32.9% 0.0 mm
14:39 31.8 °C 13.7 °C 1013.3 hPa ENE 14.4 km/h 29 km/h 33.3% 0.0 mm
14:44 31.8 °C 13.9 °C 1013.3 hPa ENE 15.6 km/h 24.1 km/h 33.9% 0.0 mm
14:49 31.8 °C 14 °C 1013.3 hPa NE 15.2 km/h 24.1 km/h 34% 0.0 mm
14:54 31.8 °C 14.1 °C 1013.0 hPa ENE 14 km/h 25.9 km/h 34.1% 0.0 mm
14:59 31.6 °C 14.2 °C 1013.0 hPa ENE 14.6 km/h 33.3 km/h 34.9% 0.0 mm
15:04 31.4 °C 14.3 °C 1013.0 hPa ENE 16.1 km/h 33.8 km/h 35.4% 0.0 mm
15:09 31.6 °C 14.2 °C 1012.8 hPa ENE 16.1 km/h 30.6 km/h 34.9% 0.0 mm
15:14 31.4 °C 14.6 °C 1012.8 hPa NE 16.1 km/h 30.6 km/h 36.1% 0.0 mm
15:19 31.5 °C 15.1 °C 1012.8 hPa ENE 16.2 km/h 29 km/h 37.1% 0.0 mm
15:24 31.7 °C 15.3 °C 1012.8 hPa ENE 16.4 km/h 27.8 km/h 37.3% 0.0 mm
15:29 31.8 °C 15.6 °C 1012.8 hPa NE 15.5 km/h 27.8 km/h 37.7% 0.0 mm
15:34 31.7 °C 15.8 °C 1012.8 hPa NE 13 km/h 35.2 km/h 38.3% 0.0 mm
15:39 31.7 °C 16.1 °C 1012.6 hPa NE 13.9 km/h 35.4 km/h 39.2% 0.0 mm
15:44 31.6 °C 15.9 °C 1012.6 hPa NE 16.4 km/h 29 km/h 39% 0.0 mm
15:49 31.6 °C 15.7 °C 1012.6 hPa NE 16.4 km/h 31.7 km/h 38.4% 0.0 mm
15:54 31.7 °C 15.8 °C 1012.4 hPa NE 16.4 km/h 32.2 km/h 38.5% 0.0 mm
15:59 31.8 °C 16 °C 1012.4 hPa NE 15.6 km/h 32.3 km/h 38.7% 0.0 mm
16:04 31.4 °C 15.3 °C 1012.4 hPa NE 13.7 km/h 37 km/h 37.7% 0.0 mm
16:09 31.3 °C 15.4 °C 1012.3 hPa ENE 15 km/h 37 km/h 38.5% 0.0 mm
16:14 31.2 °C 15.5 °C 1012.3 hPa NE 19 km/h 29.8 km/h 38.8% 0.0 mm
16:19 31.3 °C 15.4 °C 1012.3 hPa ENE 18.7 km/h 30.6 km/h 38.4% 0.0 mm
16:24 31.3 °C 15.3 °C 1012.2 hPa NE 18 km/h 31.5 km/h 38% 0.0 mm
16:29 31.3 °C 15.4 °C 1012.2 hPa NE 17.6 km/h 32.2 km/h 38.2% 0.0 mm
16:34 31.2 °C 15.9 °C 1012.2 hPa NE 16.4 km/h 30.6 km/h 39.5% 0.0 mm
16:39 31.3 °C 15.8 °C 1012.1 hPa NE 16.8 km/h 29.8 km/h 39.2% 0.0 mm
16:44 31.3 °C 15.8 °C 1012.1 hPa NE 18 km/h 33.3 km/h 39.3% 0.0 mm
16:49 31.3 °C 16.2 °C 1012.1 hPa ENE 18 km/h 33.8 km/h 40.3% 0.0 mm
16:54 31.4 °C 16.2 °C 1012.1 hPa ENE 18 km/h 27.4 km/h 40.2% 0.0 mm
16:59 31.7 °C 16.4 °C 1012.1 hPa ENE 16.5 km/h 25.9 km/h 40% 0.0 mm
17:04 31.7 °C 16.4 °C 1012.1 hPa NE 13 km/h 31.5 km/h 40% 0.0 mm
17:09 31.5 °C 16.5 °C 1011.9 hPa NE 13.8 km/h 32.2 km/h 40.6% 0.0 mm
17:14 31.3 °C 16.5 °C 1011.9 hPa ENE 16.1 km/h 29 km/h 41% 0.0 mm
17:19 31.4 °C 16.1 °C 1011.9 hPa Este 15.8 km/h 29.6 km/h 39.9% 0.0 mm
17:24 31.3 °C 16.1 °C 1011.9 hPa ENE 14.8 km/h 29 km/h 40% 0.0 mm
17:29 31.4 °C 16.2 °C 1011.9 hPa NE 15 km/h 33.3 km/h 40% 0.0 mm
17:34 31.3 °C 16.2 °C 1011.9 hPa ENE 15.6 km/h 33.8 km/h 40.1% 0.0 mm
17:39 31.2 °C 16.4 °C 1011.8 hPa ENE 15.6 km/h 34.6 km/h 41% 0.0 mm
17:44 31.2 °C 16.2 °C 1011.8 hPa NE 15.6 km/h 35.4 km/h 40.4% 0.0 mm
17:49 31.1 °C 15.8 °C 1011.8 hPa NE 16.4 km/h 33.5 km/h 39.5% 0.0 mm
17:54 31 °C 16.3 °C 1011.6 hPa ENE 19 km/h 33.8 km/h 41.1% 0.0 mm
17:59 31.2 °C 16.3 °C 1011.6 hPa ENE 18 km/h 25.7 km/h 40.9% 0.0 mm
18:04 31.2 °C 16.3 °C 1011.6 hPa NE 15.6 km/h 31.7 km/h 40.8% 0.0 mm
18:09 31.3 °C 16 °C 1011.6 hPa ENE 15.2 km/h 32.2 km/h 39.8% 0.0 mm
18:14 31.2 °C 16 °C 1011.6 hPa ENE 14 km/h 27.8 km/h 39.8% 0.0 mm
18:19 31 °C 16.4 °C 1011.6 hPa NE 14.8 km/h 35.2 km/h 41.4% 0.0 mm
18:24 30.8 °C 16.5 °C 1011.5 hPa NE 17.2 km/h 35.4 km/h 42.3% 0.0 mm
18:29 30.8 °C 16.6 °C 1011.5 hPa ENE 17.2 km/h 33.8 km/h 42.6% 0.0 mm
18:34 30.9 °C 16.5 °C 1011.5 hPa ENE 17.2 km/h 27.4 km/h 42% 0.0 mm
18:39 30.9 °C 16.5 °C 1011.4 hPa ENE 16.6 km/h 27.8 km/h 42% 0.0 mm
18:44 30.9 °C 16.8 °C 1011.4 hPa NE 14.8 km/h 31.5 km/h 42.8% 0.0 mm
18:49 30.8 °C 16.8 °C 1011.4 hPa ENE 14.6 km/h 32.2 km/h 43% 0.0 mm
18:54 30.7 °C 16.9 °C 1011.3 hPa ENE 14 km/h 26.2 km/h 43.6% 0.0 mm
18:59 30.6 °C 16.9 °C 1011.3 hPa ENE 14 km/h 25.9 km/h 44% 0.0 mm
19:04 30.6 °C 16.9 °C 1011.3 hPa NE 14 km/h 25.7 km/h 44% 0.0 mm
19:09 30.5 °C 17 °C 1011.3 hPa ENE 14.4 km/h 25.9 km/h 44.3% 0.0 mm
19:14 30.3 °C 17.2 °C 1011.3 hPa NE 15.6 km/h 25.9 km/h 45.3% 0.0 mm
19:19 30.4 °C 17.2 °C 1011.3 hPa NE 14.7 km/h 26.2 km/h 45.1% 0.0 mm
19:24 30.3 °C 17.2 °C 1011.2 hPa ENE 12.2 km/h 30.9 km/h 45.3% 0.0 mm
19:29 30.2 °C 17.3 °C 1011.2 hPa ENE 12.6 km/h 30.6 km/h 46% 0.0 mm
19:34 30 °C 17.2 °C 1011.3 hPa ENE 13.7 km/h 25.7 km/h 46.1% 0.0 mm
19:39 29.9 °C 17.3 °C 1011.3 hPa ENE 13.8 km/h 24.1 km/h 46.6% 0.0 mm
19:44 29.9 °C 17.3 °C 1011.3 hPa NE 14 km/h 24.1 km/h 46.6% 0.0 mm
19:49 29.8 °C 17.5 °C 1011.3 hPa NE 13.8 km/h 25.9 km/h 47.6% 0.0 mm
19:54 29.7 °C 17.8 °C 1011.3 hPa NE 13 km/h 25.7 km/h 49.1% 0.0 mm
19:59 29.5 °C 18.1 °C 1011.3 hPa ENE 13.2 km/h 25.9 km/h 50.4% 0.0 mm
20:04 29.4 °C 18.2 °C 1011.3 hPa NE 13.7 km/h 25.7 km/h 51% 0.0 mm
20:09 29.3 °C 18.3 °C 1011.3 hPa NE 13.3 km/h 22.5 km/h 51.6% 0.0 mm
20:14 29.2 °C 18.5 °C 1011.3 hPa NE 12.2 km/h 25.6 km/h 52.6% 0.0 mm
20:19 29.1 °C 18.5 °C 1011.4 hPa ENE 12.5 km/h 25.9 km/h 53% 0.0 mm
20:24 28.9 °C 18.3 °C 1011.4 hPa ENE 13 km/h 25.7 km/h 52.6% 0.0 mm
20:29 28.8 °C 18.4 °C 1011.4 hPa ENE 13 km/h 24.1 km/h 53.6% 0.0 mm
20:34 28.6 °C 18.5 °C 1011.4 hPa NE 13 km/h 24.1 km/h 54.5% 0.0 mm
20:39 28.4 °C 18.7 °C 1011.4 hPa NE 13 km/h 24.1 km/h 55.7% 0.0 mm
20:44 28.4 °C 18.9 °C 1011.4 hPa ENE 13 km/h 20.9 km/h 56.7% 0.0 mm
20:49 28.2 °C 19.2 °C 1011.5 hPa ENE 13.2 km/h 24.1 km/h 58% 0.0 mm
20:54 28.1 °C 18.8 °C 1011.5 hPa NE 13.7 km/h 24.1 km/h 56.9% 0.0 mm
20:59 28.1 °C 18.5 °C 1011.5 hPa NE 13.5 km/h 24.1 km/h 56% 0.0 mm
21:04 28 °C 18.4 °C 1011.5 hPa NE 13 km/h 22.5 km/h 56% 0.0 mm
21:09 27.9 °C 18.3 °C 1011.5 hPa NE 13 km/h 22.5 km/h 56.1% 0.0 mm
21:14 27.8 °C 18.7 °C 1011.5 hPa NE 13 km/h 22.2 km/h 57.4% 0.0 mm
21:19 27.7 °C 19 °C 1011.6 hPa NE 12.7 km/h 22.5 km/h 59.1% 0.0 mm
21:24 27.5 °C 19.3 °C 1011.6 hPa NE 11.9 km/h 22.5 km/h 60.8% 0.0 mm
21:29 27.4 °C 19.6 °C 1011.6 hPa NE 11.7 km/h 20.9 km/h 62.4% 0.0 mm
21:34 27.2 °C 20 °C 1011.6 hPa NE 11.1 km/h 22 km/h 65% 0.0 mm
21:39 27 °C 20.2 °C 1011.6 hPa NE 11.4 km/h 22.5 km/h 66.5% 0.0 mm
21:44 26.8 °C 20.2 °C 1011.6 hPa NE 12.2 km/h 22.5 km/h 67% 0.0 mm
21:49 26.8 °C 20.3 °C 1011.6 hPa NE 12.6 km/h 25.9 km/h 67.7% 0.0 mm
21:54 26.7 °C 20.4 °C 1011.6 hPa NE 13.7 km/h 25.7 km/h 68.5% 0.0 mm
21:59 26.6 °C 20.4 °C 1011.6 hPa NE 13.8 km/h 22.5 km/h 68.9% 0.0 mm
22:04 26.4 °C 20.1 °C 1011.6 hPa NE 14 km/h 24.5 km/h 68.1% 0.0 mm
22:09 26.4 °C 20 °C 1011.6 hPa NE 14 km/h 24.1 km/h 68% 0.0 mm
22:14 26.3 °C 20.2 °C 1011.6 hPa NE 14 km/h 20.9 km/h 69% 0.0 mm
22:19 26.3 °C 20.2 °C 1011.7 hPa NE 13.9 km/h 20.9 km/h 69% 0.0 mm
22:24 26.3 °C 20.2 °C 1011.7 hPa NE 13.7 km/h 19.3 km/h 69% 0.0 mm
22:29 26.2 °C 20.1 °C 1011.7 hPa NE 12.7 km/h 19.3 km/h 69.1% 0.0 mm
22:34 26.2 °C 20.3 °C 1011.8 hPa NE 10.3 km/h 22.2 km/h 70% 0.0 mm
22:39 26.1 °C 20.2 °C 1011.8 hPa NE 10.7 km/h 22.5 km/h 70% 0.0 mm
22:44 26.1 °C 20.4 °C 1011.8 hPa NE 11.9 km/h 20.9 km/h 70.9% 0.0 mm
22:49 26 °C 20.4 °C 1012.0 hPa NE 11.2 km/h 17.2 km/h 71.3% 0.0 mm
22:54 25.9 °C 20.5 °C 1012.0 hPa NE 9.5 km/h 18.5 km/h 72% 0.0 mm
22:59 25.9 °C 20.6 °C 1012.0 hPa NE 9.6 km/h 19.3 km/h 72.9% 0.0 mm
23:04 25.8 °C 20.6 °C 1012.2 hPa NE 10 km/h 14.5 km/h 73% 0.0 mm
23:09 25.8 °C 20.7 °C 1012.2 hPa NE 9.4 km/h 11.9 km/h 73.5% 0.0 mm
23:14 25.8 °C 20.8 °C 1012.2 hPa NE 7.6 km/h 13 km/h 74% 0.0 mm
23:19 25.8 °C 20.8 °C 1012.2 hPa NE 7.8 km/h 13.7 km/h 74% 0.0 mm
23:24 25.7 °C 20.9 °C 1012.2 hPa NE 8.4 km/h 16.1 km/h 74.9% 0.0 mm
23:29 25.7 °C 20.9 °C 1012.2 hPa NE 8.1 km/h 16.1 km/h 75% 0.0 mm
23:34 25.7 °C 20.9 °C 1012.4 hPa NE 7.6 km/h 11.3 km/h 75% 0.0 mm
23:39 25.6 °C 20.8 °C 1012.4 hPa NE 7.2 km/h 11.3 km/h 75% 0.0 mm
23:44 25.6 °C 20.8 °C 1012.4 hPa NNE 5.8 km/h 8 km/h 75% 0.0 mm
23:49 25.6 °C 20.8 °C 1012.8 hPa NNE 4.4 km/h   75% 0.0 mm
23:54 25.6 °C 20.8 °C 1012.8 hPa Calm   7.4 km/h 75% 0.0 mm
23:59 25.6 °C 20.8 °C 1012.8 hPa NNO 1.2 km/h 8 km/h 75% 0.0 mm
Murcia-Puente Tocinos, España
Compliments of Weather Underground - 3 mb

La estación de MeteoMurcia.com, publica sus datos en los siguientes proyectos:

Weather Underground PWS IMURCIAP2 Meteoclimatic www.awekas.at

W3Counter
Web Analytics